sensor_id;sensor_type;location;lat;lon;timestamp;temperature;humidity
64817;DHT22;69411;45.656;11.740;2023-05-10T00:00:28;16.40;56.80
64817;DHT22;69411;45.656;11.740;2023-05-10T00:02:54;16.40;56.90
64817;DHT22;69411;45.656;11.740;2023-05-10T00:05:20;16.40;56.90
64817;DHT22;69411;45.656;11.740;2023-05-10T00:07:46;16.40;56.90
64817;DHT22;69411;45.656;11.740;2023-05-10T00:10:12;16.40;57.20
64817;DHT22;69411;45.656;11.740;2023-05-10T00:12:38;16.40;57.00
64817;DHT22;69411;45.656;11.740;2023-05-10T00:15:04;16.40;57.20
64817;DHT22;69411;45.656;11.740;2023-05-10T00:17:30;16.30;57.20
64817;DHT22;69411;45.656;11.740;2023-05-10T00:19:56;16.30;57.10
64817;DHT22;69411;45.656;11.740;2023-05-10T00:22:23;16.30;57.30
64817;DHT22;69411;45.656;11.740;2023-05-10T00:24:48;16.30;57.30
64817;DHT22;69411;45.656;11.740;2023-05-10T00:27:14;16.30;57.10
64817;DHT22;69411;45.656;11.740;2023-05-10T00:29:40;16.20;57.10
64817;DHT22;69411;45.656;11.740;2023-05-10T00:32:06;16.30;57.30
64817;DHT22;69411;45.656;11.740;2023-05-10T00:34:32;16.20;57.40
64817;DHT22;69411;45.656;11.740;2023-05-10T00:36:58;16.20;57.50
64817;DHT22;69411;45.656;11.740;2023-05-10T00:39:24;16.20;57.80
64817;DHT22;69411;45.656;11.740;2023-05-10T00:41:52;16.10;57.90
64817;DHT22;69411;45.656;11.740;2023-05-10T00:44:18;16.10;58.50
64817;DHT22;69411;45.656;11.740;2023-05-10T00:46:44;16.00;58.70
64817;DHT22;69411;45.656;11.740;2023-05-10T00:49:11;16.00;58.90
64817;DHT22;69411;45.656;11.740;2023-05-10T00:51:37;15.90;59.10
64817;DHT22;69411;45.656;11.740;2023-05-10T00:54:03;15.90;59.40
64817;DHT22;69411;45.656;11.740;2023-05-10T00:56:29;15.90;59.30
64817;DHT22;69411;45.656;11.740;2023-05-10T00:58:55;15.90;60.40
64817;DHT22;69411;45.656;11.740;2023-05-10T01:01:22;15.80;59.90
64817;DHT22;69411;45.656;11.740;2023-05-10T01:03:48;15.80;60.20
64817;DHT22;69411;45.656;11.740;2023-05-10T01:06:14;15.70;60.20
64817;DHT22;69411;45.656;11.740;2023-05-10T01:08:40;15.70;60.20
64817;DHT22;69411;45.656;11.740;2023-05-10T01:11:06;15.60;60.60
64817;DHT22;69411;45.656;11.740;2023-05-10T01:13:36;15.60;60.70
64817;DHT22;69411;45.656;11.740;2023-05-10T01:16:03;15.60;60.90
64817;DHT22;69411;45.656;11.740;2023-05-10T01:18:38;15.60;61.10
64817;DHT22;69411;45.656;11.740;2023-05-10T01:30:14;15.40;62.50
64817;DHT22;69411;45.656;11.740;2023-05-10T01:32:49;15.40;62.30
64817;DHT22;69411;45.656;11.740;2023-05-10T01:35:42;15.30;62.70
64817;DHT22;69411;45.656;11.740;2023-05-10T01:47:01;15.30;62.60
64817;DHT22;69411;45.656;11.740;2023-05-10T01:49:34;15.20;62.90
64817;DHT22;69411;45.656;11.740;2023-05-10T01:52:08;15.20;63.60
64817;DHT22;69411;45.656;11.740;2023-05-10T01:54:35;15.20;63.30
64817;DHT22;69411;45.656;11.740;2023-05-10T01:57:06;15.20;63.50
64817;DHT22;69411;45.656;11.740;2023-05-10T01:59:35;15.20;63.60
64817;DHT22;69411;45.656;11.740;2023-05-10T02:02:05;15.10;63.40
64817;DHT22;69411;45.656;11.740;2023-05-10T02:04:35;15.10;63.60
64817;DHT22;69411;45.656;11.740;2023-05-10T02:07:03;15.10;63.60
64817;DHT22;69411;45.656;11.740;2023-05-10T02:09:33;15.10;64.00
64817;DHT22;69411;45.656;11.740;2023-05-10T02:12:01;15.10;63.80
64817;DHT22;69411;45.656;11.740;2023-05-10T02:14:30;15.10;64.00
64817;DHT22;69411;45.656;11.740;2023-05-10T02:16:59;15.10;64.20
64817;DHT22;69411;45.656;11.740;2023-05-10T02:19:26;15.10;64.30
64817;DHT22;69411;45.656;11.740;2023-05-10T02:21:55;15.00;64.50
64817;DHT22;69411;45.656;11.740;2023-05-10T02:24:21;15.00;64.50
64817;DHT22;69411;45.656;11.740;2023-05-10T02:26:49;15.00;64.30
64817;DHT22;69411;45.656;11.740;2023-05-10T02:29:17;15.00;64.40
64817;DHT22;69411;45.656;11.740;2023-05-10T02:31:44;15.00;64.20
64817;DHT22;69411;45.656;11.740;2023-05-10T02:34:11;15.00;64.10
64817;DHT22;69411;45.656;11.740;2023-05-10T02:36:39;15.00;64.00
64817;DHT22;69411;45.656;11.740;2023-05-10T02:39:07;14.90;63.60
64817;DHT22;69411;45.656;11.740;2023-05-10T02:41:36;14.90;63.30
64817;DHT22;69411;45.656;11.740;2023-05-10T02:44:03;15.00;63.40
64817;DHT22;69411;45.656;11.740;2023-05-10T02:46:32;15.00;62.90
64817;DHT22;69411;45.656;11.740;2023-05-10T02:48:58;15.00;62.90
64817;DHT22;69411;45.656;11.740;2023-05-10T02:51:31;15.00;62.90
64817;DHT22;69411;45.656;11.740;2023-05-10T02:53:57;15.00;62.90
64817;DHT22;69411;45.656;11.740;2023-05-10T02:56:31;15.00;62.70
64817;DHT22;69411;45.656;11.740;2023-05-10T02:58:58;15.00;62.50
64817;DHT22;69411;45.656;11.740;2023-05-10T03:01:24;15.00;62.30
64817;DHT22;69411;45.656;11.740;2023-05-10T03:03:50;15.00;62.40
64817;DHT22;69411;45.656;11.740;2023-05-10T03:06:16;15.00;62.30
64817;DHT22;69411;45.656;11.740;2023-05-10T03:08:43;14.90;62.40
64817;DHT22;69411;45.656;11.740;2023-05-10T03:11:21;14.90;62.60
64817;DHT22;69411;45.656;11.740;2023-05-10T03:14:04;14.90;62.80
64817;DHT22;69411;45.656;11.740;2023-05-10T03:16:57;14.90;63.20
64817;DHT22;69411;45.656;11.740;2023-05-10T03:19:53;14.80;63.10
64817;DHT22;69411;45.656;11.740;2023-05-10T03:22:29;14.80;63.20
64817;DHT22;69411;45.656;11.740;2023-05-10T03:24:57;14.80;63.10
64817;DHT22;69411;45.656;11.740;2023-05-10T03:27:25;14.70;63.20
64817;DHT22;69411;45.656;11.740;2023-05-10T03:29:53;14.70;63.30
64817;DHT22;69411;45.656;11.740;2023-05-10T03:32:20;14.70;63.30
64817;DHT22;69411;45.656;11.740;2023-05-10T03:34:46;14.60;63.20
64817;DHT22;69411;45.656;11.740;2023-05-10T03:37:12;14.60;63.30
64817;DHT22;69411;45.656;11.740;2023-05-10T03:39:38;14.60;63.00
64817;DHT22;69411;45.656;11.740;2023-05-10T03:42:04;14.50;62.50
64817;DHT22;69411;45.656;11.740;2023-05-10T03:44:30;14.50;62.90
64817;DHT22;69411;45.656;11.740;2023-05-10T03:46:59;14.50;62.90
64817;DHT22;69411;45.656;11.740;2023-05-10T03:49:25;14.50;63.10
64817;DHT22;69411;45.656;11.740;2023-05-10T03:51:51;14.50;63.10
64817;DHT22;69411;45.656;11.740;2023-05-10T03:54:17;14.40;63.60
64817;DHT22;69411;45.656;11.740;2023-05-10T03:56:43;14.40;63.80
64817;DHT22;69411;45.656;11.740;2023-05-10T03:59:09;14.40;63.90
64817;DHT22;69411;45.656;11.740;2023-05-10T04:01:35;14.40;64.00
64817;DHT22;69411;45.656;11.740;2023-05-10T04:04:01;14.40;63.90
64817;DHT22;69411;45.656;11.740;2023-05-10T04:06:27;14.40;64.20
64817;DHT22;69411;45.656;11.740;2023-05-10T04:08:52;14.30;63.80
64817;DHT22;69411;45.656;11.740;2023-05-10T04:11:19;14.30;63.90
64817;DHT22;69411;45.656;11.740;2023-05-10T04:13:47;14.30;64.40
64817;DHT22;69411;45.656;11.740;2023-05-10T04:16:13;14.30;64.10
64817;DHT22;69411;45.656;11.740;2023-05-10T04:18:39;14.30;64.30
64817;DHT22;69411;45.656;11.740;2023-05-10T04:21:11;14.20;64.40
64817;DHT22;69411;45.656;11.740;2023-05-10T04:23:38;14.20;64.30
64817;DHT22;69411;45.656;11.740;2023-05-10T04:26:04;14.20;64.60
64817;DHT22;69411;45.656;11.740;2023-05-10T04:28:30;14.20;64.80
64817;DHT22;69411;45.656;11.740;2023-05-10T04:31:07;14.20;65.00
64817;DHT22;69411;45.656;11.740;2023-05-10T04:33:33;14.20;64.60
64817;DHT22;69411;45.656;11.740;2023-05-10T04:35:59;14.10;64.80
64817;DHT22;69411;45.656;11.740;2023-05-10T04:38:26;14.10;65.30
64817;DHT22;69411;45.656;11.740;2023-05-10T04:40:53;14.20;65.10
64817;DHT22;69411;45.656;11.740;2023-05-10T04:43:19;14.10;65.10
64817;DHT22;69411;45.656;11.740;2023-05-10T04:45:45;14.10;65.00
64817;DHT22;69411;45.656;11.740;2023-05-10T04:48:11;14.10;65.50
64817;DHT22;69411;45.656;11.740;2023-05-10T04:50:37;14.10;65.60
64817;DHT22;69411;45.656;11.740;2023-05-10T04:53:03;14.00;65.60
64817;DHT22;69411;45.656;11.740;2023-05-10T04:55:29;14.00;65.90
64817;DHT22;69411;45.656;11.740;2023-05-10T04:57:55;14.00;65.90
64817;DHT22;69411;45.656;11.740;2023-05-10T05:00:23;14.00;66.00
64817;DHT22;69411;45.656;11.740;2023-05-10T05:02:49;14.00;66.40
64817;DHT22;69411;45.656;11.740;2023-05-10T05:05:15;14.00;66.10
64817;DHT22;69411;45.656;11.740;2023-05-10T05:07:41;14.00;66.20
64817;DHT22;69411;45.656;11.740;2023-05-10T05:10:08;13.90;66.70
64817;DHT22;69411;45.656;11.740;2023-05-10T05:12:34;13.90;66.80
64817;DHT22;69411;45.656;11.740;2023-05-10T05:15:01;13.90;66.70
64817;DHT22;69411;45.656;11.740;2023-05-10T05:17:27;14.00;66.60
64817;DHT22;69411;45.656;11.740;2023-05-10T05:19:53;14.00;66.40
64817;DHT22;69411;45.656;11.740;2023-05-10T05:22:19;14.00;66.80
64817;DHT22;69411;45.656;11.740;2023-05-10T05:24:52;14.00;67.20
64817;DHT22;69411;45.656;11.740;2023-05-10T05:27:18;14.00;67.00
64817;DHT22;69411;45.656;11.740;2023-05-10T05:29:46;14.00;67.50
64817;DHT22;69411;45.656;11.740;2023-05-10T05:32:12;14.00;67.10
64817;DHT22;69411;45.656;11.740;2023-05-10T05:34:38;14.00;67.40
64817;DHT22;69411;45.656;11.740;2023-05-10T05:37:05;14.00;67.50
64817;DHT22;69411;45.656;11.740;2023-05-10T05:39:30;14.00;67.80
64817;DHT22;69411;45.656;11.740;2023-05-10T05:41:56;14.10;67.80
64817;DHT22;69411;45.656;11.740;2023-05-10T05:44:22;14.00;68.00
64817;DHT22;69411;45.656;11.740;2023-05-10T05:46:48;14.00;68.90
64817;DHT22;69411;45.656;11.740;2023-05-10T05:49:14;14.00;68.60
64817;DHT22;69411;45.656;11.740;2023-05-10T05:51:40;14.00;68.20
64817;DHT22;69411;45.656;11.740;2023-05-10T05:54:07;14.00;68.90
64817;DHT22;69411;45.656;11.740;2023-05-10T05:56:33;14.00;68.90
64817;DHT22;69411;45.656;11.740;2023-05-10T05:58:59;13.90;69.30
64817;DHT22;69411;45.656;11.740;2023-05-10T06:01:24;13.90;68.60
64817;DHT22;69411;45.656;11.740;2023-05-10T06:03:52;13.90;68.70
64817;DHT22;69411;45.656;11.740;2023-05-10T06:06:18;13.90;69.60
64817;DHT22;69411;45.656;11.740;2023-05-10T06:08:44;13.90;69.40
64817;DHT22;69411;45.656;11.740;2023-05-10T06:11:10;13.90;69.10
64817;DHT22;69411;45.656;11.740;2023-05-10T06:13:36;13.90;69.40
64817;DHT22;69411;45.656;11.740;2023-05-10T06:16:02;13.90;69.10
64817;DHT22;69411;45.656;11.740;2023-05-10T06:18:28;13.90;70.30
64817;DHT22;69411;45.656;11.740;2023-05-10T06:20:54;13.90;69.80
64817;DHT22;69411;45.656;11.740;2023-05-10T06:23:20;13.90;69.70
64817;DHT22;69411;45.656;11.740;2023-05-10T06:25:47;13.90;69.80
64817;DHT22;69411;45.656;11.740;2023-05-10T06:28:13;13.90;69.70
64817;DHT22;69411;45.656;11.740;2023-05-10T06:30:39;13.90;70.80
64817;DHT22;69411;45.656;11.740;2023-05-10T06:33:05;13.90;70.70
64817;DHT22;69411;45.656;11.740;2023-05-10T06:35:32;13.90;70.90
64817;DHT22;69411;45.656;11.740;2023-05-10T06:37:59;13.90;70.90
64817;DHT22;69411;45.656;11.740;2023-05-10T06:40:25;13.90;70.80
64817;DHT22;69411;45.656;11.740;2023-05-10T06:42:51;13.90;70.90
64817;DHT22;69411;45.656;11.740;2023-05-10T06:45:17;13.90;71.10
64817;DHT22;69411;45.656;11.740;2023-05-10T06:47:43;13.90;72.30
64817;DHT22;69411;45.656;11.740;2023-05-10T06:50:09;13.90;71.80
64817;DHT22;69411;45.656;11.740;2023-05-10T06:52:37;13.90;72.10
64817;DHT22;69411;45.656;11.740;2023-05-10T06:55:06;13.80;71.30
64817;DHT22;69411;45.656;11.740;2023-05-10T06:57:32;13.80;72.10
64817;DHT22;69411;45.656;11.740;2023-05-10T06:59:58;13.80;72.10
64817;DHT22;69411;45.656;11.740;2023-05-10T07:02:24;13.80;71.70
64817;DHT22;69411;45.656;11.740;2023-05-10T07:04:50;13.80;71.80
64817;DHT22;69411;45.656;11.740;2023-05-10T07:07:17;13.80;71.90
64817;DHT22;69411;45.656;11.740;2023-05-10T07:09:43;13.80;71.60
64817;DHT22;69411;45.656;11.740;2023-05-10T07:12:10;13.90;71.50
64817;DHT22;69411;45.656;11.740;2023-05-10T07:14:36;13.90;71.70
64817;DHT22;69411;45.656;11.740;2023-05-10T07:17:02;13.90;72.00
64817;DHT22;69411;45.656;11.740;2023-05-10T07:19:27;13.90;72.10
64817;DHT22;69411;45.656;11.740;2023-05-10T07:21:55;13.90;72.10
64817;DHT22;69411;45.656;11.740;2023-05-10T07:24:21;13.90;71.70
64817;DHT22;69411;45.656;11.740;2023-05-10T07:26:47;13.90;71.90
64817;DHT22;69411;45.656;11.740;2023-05-10T07:29:12;13.90;71.80
64817;DHT22;69411;45.656;11.740;2023-05-10T07:31:38;13.90;72.60
64817;DHT22;69411;45.656;11.740;2023-05-10T07:34:07;13.90;72.50
64817;DHT22;69411;45.656;11.740;2023-05-10T07:36:33;13.90;72.10
64817;DHT22;69411;45.656;11.740;2023-05-10T07:39:00;13.90;72.90
64817;DHT22;69411;45.656;11.740;2023-05-10T07:41:25;13.90;72.70
64817;DHT22;69411;45.656;11.740;2023-05-10T07:43:51;13.90;72.90
64817;DHT22;69411;45.656;11.740;2023-05-10T07:46:17;13.90;72.80
64817;DHT22;69411;45.656;11.740;2023-05-10T07:48:45;13.90;72.60
64817;DHT22;69411;45.656;11.740;2023-05-10T07:51:10;13.90;73.30
64817;DHT22;69411;45.656;11.740;2023-05-10T07:53:38;13.90;72.60
64817;DHT22;69411;45.656;11.740;2023-05-10T07:56:24;13.90;72.90
64817;DHT22;69411;45.656;11.740;2023-05-10T07:58:52;13.90;72.70
64817;DHT22;69411;45.656;11.740;2023-05-10T08:01:18;13.90;72.90
64817;DHT22;69411;45.656;11.740;2023-05-10T08:03:44;13.90;73.00
64817;DHT22;69411;45.656;11.740;2023-05-10T08:06:10;13.90;73.40
64817;DHT22;69411;45.656;11.740;2023-05-10T08:08:35;13.90;73.30
64817;DHT22;69411;45.656;11.740;2023-05-10T08:11:01;13.90;72.50
64817;DHT22;69411;45.656;11.740;2023-05-10T08:13:27;13.90;72.90
64817;DHT22;69411;45.656;11.740;2023-05-10T08:15:53;13.90;73.40
64817;DHT22;69411;45.656;11.740;2023-05-10T08:18:19;13.90;73.50
64817;DHT22;69411;45.656;11.740;2023-05-10T08:20:45;13.90;73.20
64817;DHT22;69411;45.656;11.740;2023-05-10T08:23:12;13.90;74.00
64817;DHT22;69411;45.656;11.740;2023-05-10T08:25:39;13.80;73.80
64817;DHT22;69411;45.656;11.740;2023-05-10T08:28:05;13.80;73.50
64817;DHT22;69411;45.656;11.740;2023-05-10T08:30:31;13.80;73.20
64817;DHT22;69411;45.656;11.740;2023-05-10T08:32:57;13.80;73.10
64817;DHT22;69411;45.656;11.740;2023-05-10T08:35:23;13.80;73.10
64817;DHT22;69411;45.656;11.740;2023-05-10T08:37:50;13.80;73.20
64817;DHT22;69411;45.656;11.740;2023-05-10T08:40:16;13.80;73.30
64817;DHT22;69411;45.656;11.740;2023-05-10T08:42:58;13.80;73.10
64817;DHT22;69411;45.656;11.740;2023-05-10T08:45:32;13.80;73.10
64817;DHT22;69411;45.656;11.740;2023-05-10T08:48:01;13.80;73.30
64817;DHT22;69411;45.656;11.740;2023-05-10T08:50:27;13.80;73.60
64817;DHT22;69411;45.656;11.740;2023-05-10T08:52:59;13.80;73.10
64817;DHT22;69411;45.656;11.740;2023-05-10T08:55:25;13.80;73.10
64817;DHT22;69411;45.656;11.740;2023-05-10T08:57:51;13.80;73.50
64817;DHT22;69411;45.656;11.740;2023-05-10T09:00:18;13.80;73.50
64817;DHT22;69411;45.656;11.740;2023-05-10T09:02:44;13.80;73.30
64817;DHT22;69411;45.656;11.740;2023-05-10T09:05:12;13.80;73.80
64817;DHT22;69411;45.656;11.740;2023-05-10T09:07:38;13.90;74.30
64817;DHT22;69411;45.656;11.740;2023-05-10T09:10:04;13.80;74.80
64817;DHT22;69411;45.656;11.740;2023-05-10T09:12:31;13.80;74.30
64817;DHT22;69411;45.656;11.740;2023-05-10T09:14:59;13.80;75.80
64817;DHT22;69411;45.656;11.740;2023-05-10T09:17:25;13.70;75.30
64817;DHT22;69411;45.656;11.740;2023-05-10T09:20:03;13.80;75.40
64817;DHT22;69411;45.656;11.740;2023-05-10T09:22:33;13.80;75.10
64817;DHT22;69411;45.656;11.740;2023-05-10T09:27:37;13.80;76.00
64817;DHT22;69411;45.656;11.740;2023-05-10T09:30:04;13.80;75.20
64817;DHT22;69411;45.656;11.740;2023-05-10T09:32:44;13.90;75.30
64817;DHT22;69411;45.656;11.740;2023-05-10T09:35:13;13.90;74.80
64817;DHT22;69411;45.656;11.740;2023-05-10T09:37:40;13.90;75.80
64817;DHT22;69411;45.656;11.740;2023-05-10T09:40:13;13.90;75.00
64817;DHT22;69411;45.656;11.740;2023-05-10T09:42:59;13.90;75.30
64817;DHT22;69411;45.656;11.740;2023-05-10T09:45:28;14.00;75.30
64817;DHT22;69411;45.656;11.740;2023-05-10T09:47:55;13.90;74.90
64817;DHT22;69411;45.656;11.740;2023-05-10T09:50:22;14.00;74.50
64817;DHT22;69411;45.656;11.740;2023-05-10T09:55:15;14.00;74.70
64817;DHT22;69411;45.656;11.740;2023-05-10T09:57:41;14.00;74.80
64817;DHT22;69411;45.656;11.740;2023-05-10T10:00:07;14.00;74.80
64817;DHT22;69411;45.656;11.740;2023-05-10T10:02:35;13.90;74.80
64817;DHT22;69411;45.656;11.740;2023-05-10T10:05:02;13.90;74.90
64817;DHT22;69411;45.656;11.740;2023-05-10T10:07:31;13.90;75.00
64817;DHT22;69411;45.656;11.740;2023-05-10T10:09:58;13.80;75.20
64817;DHT22;69411;45.656;11.740;2023-05-10T10:12:25;13.80;75.10
64817;DHT22;69411;45.656;11.740;2023-05-10T10:14:51;13.80;74.70
64817;DHT22;69411;45.656;11.740;2023-05-10T10:17:18;13.90;74.50
64817;DHT22;69411;45.656;11.740;2023-05-10T10:19:45;13.90;75.50
64817;DHT22;69411;45.656;11.740;2023-05-10T10:22:12;13.90;74.90
64817;DHT22;69411;45.656;11.740;2023-05-10T10:24:38;13.90;75.20
64817;DHT22;69411;45.656;11.740;2023-05-10T10:35:36;13.90;75.90
64817;DHT22;69411;45.656;11.740;2023-05-10T10:38:02;13.90;75.60
64817;DHT22;69411;45.656;11.740;2023-05-10T10:40:30;13.90;75.90
64817;DHT22;69411;45.656;11.740;2023-05-10T10:42:57;14.00;75.70
64817;DHT22;69411;45.656;11.740;2023-05-10T10:45:24;13.90;75.20
64817;DHT22;69411;45.656;11.740;2023-05-10T10:48:22;13.90;75.60
64817;DHT22;69411;45.656;11.740;2023-05-10T10:50:56;14.00;75.30
64817;DHT22;69411;45.656;11.740;2023-05-10T10:53:26;14.00;75.30
64817;DHT22;69411;45.656;11.740;2023-05-10T10:56:04;14.00;75.90
64817;DHT22;69411;45.656;11.740;2023-05-10T10:58:33;14.00;75.30
64817;DHT22;69411;45.656;11.740;2023-05-10T11:03:37;14.10;75.90
64817;DHT22;69411;45.656;11.740;2023-05-10T11:06:03;14.10;75.90
64817;DHT22;69411;45.656;11.740;2023-05-10T11:08:30;14.20;76.50
64817;DHT22;69411;45.656;11.740;2023-05-10T11:13:36;14.20;75.30
64817;DHT22;69411;45.656;11.740;2023-05-10T11:16:23;14.30;75.70
64817;DHT22;69411;45.656;11.740;2023-05-10T11:18:59;14.40;75.30
64817;DHT22;69411;45.656;11.740;2023-05-10T11:21:31;14.40;76.20
64817;DHT22;69411;45.656;11.740;2023-05-10T11:23:59;14.40;75.70
64817;DHT22;69411;45.656;11.740;2023-05-10T11:26:30;14.40;75.50
64817;DHT22;69411;45.656;11.740;2023-05-10T11:28:57;14.40;76.80
64817;DHT22;69411;45.656;11.740;2023-05-10T11:31:25;14.40;75.40
64817;DHT22;69411;45.656;11.740;2023-05-10T11:33:56;14.40;75.90
64817;DHT22;69411;45.656;11.740;2023-05-10T11:36:32;14.40;76.40
64817;DHT22;69411;45.656;11.740;2023-05-10T11:38:58;14.40;75.50
64817;DHT22;69411;45.656;11.740;2023-05-10T11:41:25;14.40;76.40
64817;DHT22;69411;45.656;11.740;2023-05-10T11:43:53;14.30;76.00
64817;DHT22;69411;45.656;11.740;2023-05-10T11:46:26;14.30;75.50
64817;DHT22;69411;45.656;11.740;2023-05-10T11:49:03;14.30;75.80
64817;DHT22;69411;45.656;11.740;2023-05-10T11:51:36;14.30;75.60
64817;DHT22;69411;45.656;11.740;2023-05-10T11:54:06;14.30;75.80
64817;DHT22;69411;45.656;11.740;2023-05-10T11:56:33;14.30;76.10
64817;DHT22;69411;45.656;11.740;2023-05-10T11:59:00;14.30;76.40
64817;DHT22;69411;45.656;11.740;2023-05-10T12:01:28;14.20;76.30
64817;DHT22;69411;45.656;11.740;2023-05-10T12:03:55;14.20;76.00
64817;DHT22;69411;45.656;11.740;2023-05-10T12:06:37;14.20;76.40
64817;DHT22;69411;45.656;11.740;2023-05-10T12:09:06;14.20;76.70
64817;DHT22;69411;45.656;11.740;2023-05-10T12:11:37;14.20;76.50
64817;DHT22;69411;45.656;11.740;2023-05-10T12:14:04;14.20;76.60
64817;DHT22;69411;45.656;11.740;2023-05-10T12:16:31;14.10;76.80
64817;DHT22;69411;45.656;11.740;2023-05-10T12:18:59;14.20;76.80
64817;DHT22;69411;45.656;11.740;2023-05-10T12:21:25;14.10;76.80
64817;DHT22;69411;45.656;11.740;2023-05-10T12:24:03;14.10;77.20
64817;DHT22;69411;45.656;11.740;2023-05-10T12:26:29;14.10;77.90
64817;DHT22;69411;45.656;11.740;2023-05-10T12:29:14;14.10;77.40
64817;DHT22;69411;45.656;11.740;2023-05-10T12:31:58;14.10;77.40
64817;DHT22;69411;45.656;11.740;2023-05-10T12:34:31;14.10;77.40
64817;DHT22;69411;45.656;11.740;2023-05-10T12:36:57;14.10;77.10
64817;DHT22;69411;45.656;11.740;2023-05-10T12:39:24;14.00;77.10
64817;DHT22;69411;45.656;11.740;2023-05-10T12:41:51;14.00;76.80
64817;DHT22;69411;45.656;11.740;2023-05-10T12:44:18;14.00;77.10
64817;DHT22;69411;45.656;11.740;2023-05-10T12:46:44;13.90;77.70
64817;DHT22;69411;45.656;11.740;2023-05-10T12:49:09;13.90;78.00
64817;DHT22;69411;45.656;11.740;2023-05-10T12:51:36;13.90;77.70
64817;DHT22;69411;45.656;11.740;2023-05-10T12:54:02;13.90;77.80
64817;DHT22;69411;45.656;11.740;2023-05-10T12:56:29;13.90;77.80
64817;DHT22;69411;45.656;11.740;2023-05-10T12:58:54;13.90;77.60
64817;DHT22;69411;45.656;11.740;2023-05-10T13:01:20;13.90;77.30
64817;DHT22;69411;45.656;11.740;2023-05-10T13:03:46;13.90;78.60
64817;DHT22;69411;45.656;11.740;2023-05-10T13:06:13;13.90;77.90
64817;DHT22;69411;45.656;11.740;2023-05-10T13:08:39;13.90;77.80
64817;DHT22;69411;45.656;11.740;2023-05-10T13:11:05;13.90;77.80
64817;DHT22;69411;45.656;11.740;2023-05-10T13:13:31;13.90;77.80
64817;DHT22;69411;45.656;11.740;2023-05-10T13:15:57;13.90;78.50
64817;DHT22;69411;45.656;11.740;2023-05-10T13:18:23;13.90;78.10
64817;DHT22;69411;45.656;11.740;2023-05-10T13:20:50;13.90;78.20
64817;DHT22;69411;45.656;11.740;2023-05-10T13:23:15;13.90;78.10
64817;DHT22;69411;45.656;11.740;2023-05-10T13:25:41;13.90;78.20
64817;DHT22;69411;45.656;11.740;2023-05-10T13:28:07;13.80;78.20
64817;DHT22;69411;45.656;11.740;2023-05-10T13:30:33;13.90;78.10
64817;DHT22;69411;45.656;11.740;2023-05-10T13:32:59;13.80;78.00
64817;DHT22;69411;45.656;11.740;2023-05-10T13:35:25;13.90;78.10
64817;DHT22;69411;45.656;11.740;2023-05-10T13:37:51;13.90;79.80
64817;DHT22;69411;45.656;11.740;2023-05-10T13:40:19;13.80;79.80
64817;DHT22;69411;45.656;11.740;2023-05-10T13:42:45;13.80;79.60
64817;DHT22;69411;45.656;11.740;2023-05-10T13:45:11;13.70;79.90
64817;DHT22;69411;45.656;11.740;2023-05-10T13:47:38;13.70;80.50
64817;DHT22;69411;45.656;11.740;2023-05-10T13:50:04;13.70;80.50
64817;DHT22;69411;45.656;11.740;2023-05-10T13:52:31;13.70;80.40
64817;DHT22;69411;45.656;11.740;2023-05-10T13:54:57;13.70;80.30
64817;DHT22;69411;45.656;11.740;2023-05-10T13:57:23;13.70;80.20
64817;DHT22;69411;45.656;11.740;2023-05-10T13:59:50;13.70;80.30
64817;DHT22;69411;45.656;11.740;2023-05-10T14:02:16;13.70;80.80
64817;DHT22;69411;45.656;11.740;2023-05-10T14:04:42;13.70;80.80
64817;DHT22;69411;45.656;11.740;2023-05-10T14:07:07;13.70;81.00
64817;DHT22;69411;45.656;11.740;2023-05-10T14:09:33;13.70;81.00
64817;DHT22;69411;45.656;11.740;2023-05-10T14:11:59;13.70;80.90
64817;DHT22;69411;45.656;11.740;2023-05-10T14:14:25;13.70;80.70
64817;DHT22;69411;45.656;11.740;2023-05-10T14:16:51;13.80;80.40
64817;DHT22;69411;45.656;11.740;2023-05-10T14:19:17;13.80;80.00
64817;DHT22;69411;45.656;11.740;2023-05-10T14:21:43;13.80;80.10
64817;DHT22;69411;45.656;11.740;2023-05-10T14:24:10;13.80;79.70
64817;DHT22;69411;45.656;11.740;2023-05-10T14:26:36;13.90;79.70
64817;DHT22;69411;45.656;11.740;2023-05-10T14:29:02;13.90;80.20
64817;DHT22;69411;45.656;11.740;2023-05-10T14:31:28;13.80;79.40
64817;DHT22;69411;45.656;11.740;2023-05-10T14:33:56;13.90;80.00
64817;DHT22;69411;45.656;11.740;2023-05-10T14:36:23;13.90;79.70
64817;DHT22;69411;45.656;11.740;2023-05-10T14:38:49;13.90;79.40
64817;DHT22;69411;45.656;11.740;2023-05-10T14:41:16;13.90;79.50
64817;DHT22;69411;45.656;11.740;2023-05-10T14:43:43;13.80;79.40
64817;DHT22;69411;45.656;11.740;2023-05-10T14:46:09;13.80;79.20
64817;DHT22;69411;45.656;11.740;2023-05-10T14:48:35;13.80;79.20
64817;DHT22;69411;45.656;11.740;2023-05-10T14:51:01;13.80;79.30
64817;DHT22;69411;45.656;11.740;2023-05-10T14:53:27;13.80;79.40
64817;DHT22;69411;45.656;11.740;2023-05-10T14:55:53;13.70;79.50
64817;DHT22;69411;45.656;11.740;2023-05-10T14:58:19;13.80;79.20
64817;DHT22;69411;45.656;11.740;2023-05-10T15:00:45;13.70;79.10
64817;DHT22;69411;45.656;11.740;2023-05-10T15:03:12;13.80;79.50
64817;DHT22;69411;45.656;11.740;2023-05-10T15:05:38;13.70;79.50
64817;DHT22;69411;45.656;11.740;2023-05-10T15:08:04;13.80;79.50
64817;DHT22;69411;45.656;11.740;2023-05-10T15:10:31;13.80;80.00
64817;DHT22;69411;45.656;11.740;2023-05-10T15:12:58;13.70;79.40
64817;DHT22;69411;45.656;11.740;2023-05-10T15:15:24;13.80;79.30
64817;DHT22;69411;45.656;11.740;2023-05-10T15:17:50;13.80;80.50
64817;DHT22;69411;45.656;11.740;2023-05-10T15:20:16;13.80;81.20
64817;DHT22;69411;45.656;11.740;2023-05-10T15:22:43;13.70;80.80
64817;DHT22;69411;45.656;11.740;2023-05-10T15:25:09;13.70;80.80
64817;DHT22;69411;45.656;11.740;2023-05-10T15:27:35;13.70;80.60
64817;DHT22;69411;45.656;11.740;2023-05-10T15:30:01;13.70;80.60
64817;DHT22;69411;45.656;11.740;2023-05-10T15:32:27;13.70;80.80
64817;DHT22;69411;45.656;11.740;2023-05-10T15:34:55;13.60;81.30
64817;DHT22;69411;45.656;11.740;2023-05-10T15:37:21;13.60;80.70
64817;DHT22;69411;45.656;11.740;2023-05-10T15:39:49;13.60;80.20
64817;DHT22;69411;45.656;11.740;2023-05-10T15:42:15;13.70;80.90
64817;DHT22;69411;45.656;11.740;2023-05-10T15:44:41;13.70;80.70
64817;DHT22;69411;45.656;11.740;2023-05-10T15:47:07;13.60;80.40
64817;DHT22;69411;45.656;11.740;2023-05-10T15:49:33;13.70;81.70
64817;DHT22;69411;45.656;11.740;2023-05-10T15:51:59;13.60;81.20
64817;DHT22;69411;45.656;11.740;2023-05-10T15:54:25;13.70;82.00